Time;durP1;ratioP1;P1;durP2;ratioP2;P2;SDS_P1;SDS_P2;PMS_P1;PMS_P2;Temp;Humidity;BMP_temperature;BMP_pressure;BME280_temperature;BME280_humidity;BME280_pressure;Samples;Min_cycle;Max_cycle;Signal;HPM_P1;HPM_P2
2023/06/01 00:01:48;;;;;;;0.30;0.30;;;18.30;99.90;;;;;;5092322;28;20213;-82
2023/06/01 00:04:16;;;;;;;0.30;0.30;;;18.10;99.90;;;;;;5092451;28;20276;-76
2023/06/01 00:06:43;;;;;;;0.80;0.80;;;18.10;99.90;;;;;;5092431;28;20209;-79
2023/06/01 00:09:10;;;;;;;0.40;0.40;;;18.10;99.90;;;;;;5090540;28;20233;-76
2023/06/01 00:11:39;;;;;;;1.00;1.00;;;18.30;99.90;;;;;;5074735;28;20260;-77
2023/06/01 00:14:06;;;;;;;0.10;0.10;;;18.30;99.90;;;;;;5084174;28;20214;-79
2023/06/01 00:16:33;;;;;;;0.20;0.20;;;18.40;99.90;;;;;;5069564;28;20238;-76
2023/06/01 00:19:01;;;;;;;0.20;0.20;;;18.40;99.90;;;;;;5089351;28;20240;-77
2023/06/01 00:21:28;;;;;;;0.20;0.20;;;18.60;99.90;;;;;;5092427;28;20567;-79
2023/06/01 00:23:55;;;;;;;0.20;0.20;;;18.60;99.90;;;;;;5092472;28;20229;-76
2023/06/01 00:26:22;;;;;;;0.50;0.50;;;18.40;99.90;;;;;;5092555;28;20673;-76
2023/06/01 00:28:50;;;;;;;0.10;0.10;;;18.60;99.90;;;;;;5091411;28;20233;-76
2023/06/01 00:31:17;;;;;;;0.20;0.20;;;18.40;99.90;;;;;;5092365;28;20241;-79
2023/06/01 00:33:44;;;;;;;0.10;0.10;;;18.60;99.90;;;;;;5091364;28;20258;-81
2023/06/01 00:36:11;;;;;;;0.65;0.65;;;18.60;99.90;;;;;;5092012;28;20621;-89
2023/06/01 00:38:38;;;;;;;0.17;0.17;;;18.30;99.90;;;;;;5091493;28;20648;-74
2023/06/01 00:41:05;;;;;;;0.20;0.20;;;18.30;99.90;;;;;;5064171;28;20240;-83
2023/06/01 00:43:32;;;;;;;0.20;0.20;;;18.30;99.90;;;;;;5091428;28;20225;-86
2023/06/01 00:46:00;;;;;;;0.10;0.10;;;18.40;99.90;;;;;;5087554;28;20229;-83
2023/06/01 00:48:27;;;;;;;0.20;0.20;;;18.30;99.90;;;;;;5082265;28;20252;-79
2023/06/01 00:50:56;;;;;;;0.52;0.52;;;18.50;99.90;;;;;;5091885;28;20274;-79
2023/06/01 00:53:25;;;;;;;0.20;0.20;;;18.40;99.90;;;;;;5092229;28;20201;-84
2023/06/01 00:55:52;;;;;;;0.10;0.10;;;18.20;99.90;;;;;;5091383;28;20237;-80
2023/06/01 00:58:19;;;;;;;0.10;0.10;;;18.30;99.90;;;;;;5092131;28;20240;-82
2023/06/01 01:00:47;;;;;;;0.10;0.10;;;18.50;99.90;;;;;;5091171;28;20775;-88
2023/06/01 01:03:17;;;;;;;0.35;0.35;;;18.50;99.90;;;;;;5091316;28;20205;-83
2023/06/01 01:05:44;;;;;;;0.20;0.20;;;18.50;99.90;;;;;;5090992;28;20233;-77
2023/06/01 01:08:17;;;;;;;0.20;0.20;;;18.30;99.90;;;;;;5091511;28;20229;-75
2023/06/01 01:10:51;;;;;;;0.20;0.20;;;18.40;99.90;;;;;;5091250;28;20241;-81
2023/06/01 01:13:22;;;;;;;1.08;0.90;;;18.40;99.90;;;;;;5091365;28;20212;-77
2023/06/01 01:15:58;;;;;;;0.20;0.20;;;18.30;99.90;;;;;;5090960;28;20255;-81
2023/06/01 01:18:33;;;;;;;1.67;1.58;;;18.20;99.90;;;;;;5076952;28;20613;-81
2023/06/01 01:21:03;;;;;;;0.85;0.85;;;18.40;99.90;;;;;;5090872;28;20215;-79
2023/06/01 01:23:49;;;;;;;0.52;0.52;;;18.20;99.90;;;;;;5090687;28;20301;-79
2023/06/01 01:26:26;;;;;;;1.00;1.00;;;18.20;99.90;;;;;;5091211;28;20219;-77
2023/06/01 01:28:57;;;;;;;0.20;0.20;;;18.20;99.90;;;;;;5062713;28;20692;-83
2023/06/01 01:31:25;;;;;;;0.68;0.68;;;18.20;99.90;;;;;;5091148;28;20237;-75
2023/06/01 01:33:55;;;;;;;0.95;0.95;;;18.30;99.90;;;;;;5090601;28;20688;-82
2023/06/01 01:36:23;;;;;;;0.30;0.30;;;18.20;99.90;;;;;;5091508;28;20251;-78
2023/06/01 01:38:50;;;;;;;0.20;0.20;;;18.20;99.90;;;;;;5090551;28;20205;-77
2023/06/01 01:41:17;;;;;;;0.20;0.20;;;17.90;99.90;;;;;;5090979;28;20240;-77
2023/06/01 01:43:45;;;;;;;0.15;0.15;;;18.00;99.90;;;;;;5090168;28;20307;-76
2023/06/01 01:46:23;;;;;;;0.22;0.22;;;18.00;99.90;;;;;;5090642;28;20673;-77
2023/06/01 01:48:55;;;;;;;0.63;0.63;;;17.80;99.90;;;;;;5090400;28;20212;-74
2023/06/01 01:51:28;;;;;;;0.30;0.30;;;17.90;99.90;;;;;;5091032;28;20205;-73
2023/06/01 01:53:57;;;;;;;0.28;0.28;;;17.90;99.90;;;;;;5090702;28;20292;-74
2023/06/01 01:56:25;;;;;;;0.20;0.20;;;17.70;99.90;;;;;;5091237;28;20204;-76
2023/06/01 01:58:54;;;;;;;0.10;0.10;;;17.60;99.90;;;;;;5090610;28;20209;-77
2023/06/01 02:01:22;;;;;;;0.10;0.10;;;17.70;99.90;;;;;;5090534;28;20256;-79
2023/06/01 02:03:59;;;;;;;0.30;0.30;;;17.70;99.90;;;;;;5090314;28;20264;-76
2023/06/01 02:06:26;;;;;;;0.45;0.45;;;17.80;99.90;;;;;;5065026;28;20201;-76
2023/06/01 02:08:53;;;;;;;0.30;0.30;;;17.80;99.90;;;;;;5090455;28;20241;-74
2023/06/01 02:11:20;;;;;;;0.10;0.10;;;17.70;99.90;;;;;;5090260;28;20214;-80
2023/06/01 02:13:47;;;;;;;0.40;0.40;;;17.50;99.90;;;;;;5090155;28;20245;-77
2023/06/01 02:16:15;;;;;;;0.57;0.57;;;17.80;99.90;;;;;;5090133;28;20248;-73
2023/06/01 02:18:45;;;;;;;0.47;0.47;;;17.90;99.90;;;;;;5090059;28;20209;-74
2023/06/01 02:21:13;;;;;;;0.10;0.10;;;17.90;99.90;;;;;;5090169;28;20363;-74
2023/06/01 02:23:40;;;;;;;0.13;0.13;;;17.80;99.90;;;;;;5090185;28;20298;-77
2023/06/01 02:26:07;;;;;;;0.38;0.38;;;17.90;99.90;;;;;;5090252;28;20233;-75
2023/06/01 02:28:34;;;;;;;0.20;0.20;;;17.90;99.90;;;;;;5090018;28;20252;-78
2023/06/01 02:31:01;;;;;;;0.25;0.25;;;17.60;99.90;;;;;;5090203;28;20210;-74
2023/06/01 02:33:28;;;;;;;0.77;0.77;;;17.70;99.90;;;;;;5092270;28;20685;-78
2023/06/01 02:35:57;;;;;;;0.20;0.20;;;17.40;99.90;;;;;;5094748;28;20241;-76
2023/06/01 02:38:23;;;;;;;0.20;0.20;;;17.50;99.90;;;;;;5094330;28;20646;-76
2023/06/01 02:40:50;;;;;;;0.63;0.63;;;17.70;99.90;;;;;;5087392;28;20241;-73
2023/06/01 02:43:17;;;;;;;0.20;0.20;;;17.50;99.90;;;;;;5086946;28;20252;-74
2023/06/01 02:45:45;;;;;;;0.30;0.30;;;17.70;99.90;;;;;;5093333;28;20261;-74
2023/06/01 02:48:12;;;;;;;0.20;0.20;;;17.60;99.90;;;;;;5093996;28;20209;-75
2023/06/01 02:50:39;;;;;;;0.38;0.38;;;17.70;99.90;;;;;;5093192;28;20704;-77
2023/06/01 02:53:08;;;;;;;0.20;0.20;;;17.50;99.90;;;;;;5094017;28;20699;-82
2023/06/01 02:55:34;;;;;;;0.20;0.20;;;17.60;99.90;;;;;;5093554;28;20236;-82
2023/06/01 02:58:01;;;;;;;0.45;0.40;;;17.50;99.90;;;;;;5094121;28;20210;-76
2023/06/01 03:00:28;;;;;;;0.10;0.10;;;17.40;99.90;;;;;;5093632;28;20642;-77
2023/06/01 03:02:55;;;;;;;0.10;0.10;;;17.40;99.90;;;;;;5066077;28;20241;-73
2023/06/01 03:05:22;;;;;;;0.20;0.20;;;17.30;99.90;;;;;;5093933;28;20733;-76
2023/06/01 03:07:49;;;;;;;0.10;0.10;;;17.20;99.90;;;;;;5092972;28;20243;-75
2023/06/01 03:10:18;;;;;;;0.20;0.20;;;17.00;99.90;;;;;;5093963;28;20213;-87
2023/06/01 03:12:44;;;;;;;0.10;0.10;;;17.00;99.90;;;;;;5092892;28;20233;-74
2023/06/01 03:15:12;;;;;;;0.10;0.10;;;17.00;99.90;;;;;;5093425;28;20209;-72
2023/06/01 03:17:39;;;;;;;0.30;0.30;;;16.90;99.90;;;;;;5092854;28;20665;-77
2023/06/01 03:20:14;;;;;;;0.20;0.20;;;16.90;99.90;;;;;;5093456;28;20237;-81
2023/06/01 03:22:42;;;;;;;0.28;0.28;;;16.90;99.90;;;;;;5092894;28;20208;-79
2023/06/01 03:25:12;;;;;;;0.57;0.57;;;16.70;99.90;;;;;;5093180;28;20712;-78
2023/06/01 03:27:41;;;;;;;1.40;1.05;;;16.80;99.90;;;;;;5092727;28;20619;-73
2023/06/01 03:30:10;;;;;;;0.20;0.20;;;16.60;99.90;;;;;;5093435;28;20260;-74
2023/06/01 03:32:38;;;;;;;0.10;0.10;;;16.70;99.90;;;;;;5092891;28;20249;-79
2023/06/01 03:35:07;;;;;;;0.20;0.20;;;16.70;99.90;;;;;;5093075;28;20201;-75
2023/06/01 03:37:34;;;;;;;0.28;0.28;;;16.80;99.90;;;;;;5092672;28;20292;-76
2023/06/01 03:40:01;;;;;;;0.35;0.35;;;16.70;99.90;;;;;;5079068;28;20210;-73
2023/06/01 03:42:28;;;;;;;0.57;0.57;;;16.80;99.90;;;;;;5092433;28;20205;-77
2023/06/01 03:44:56;;;;;;;1.23;0.68;;;16.60;99.90;;;;;;5092770;28;20272;-75
2023/06/01 03:47:23;;;;;;;0.30;0.30;;;16.50;99.90;;;;;;5093088;28;20288;-75
2023/06/01 03:49:50;;;;;;;0.30;0.30;;;16.60;99.90;;;;;;5092508;28;20241;-85
2023/06/01 03:52:18;;;;;;;0.20;0.20;;;16.60;99.90;;;;;;5092559;28;20202;-75
2023/06/01 03:54:45;;;;;;;0.10;0.10;;;16.60;99.90;;;;;;5092308;28;20209;-76
2023/06/01 03:57:12;;;;;;;0.10;0.10;;;16.60;99.90;;;;;;5092167;28;20256;-72
2023/06/01 03:59:38;;;;;;;0.13;0.13;;;16.60;99.90;;;;;;5092513;28;20205;-75
2023/06/01 04:02:09;;;;;;;0.20;0.20;;;16.70;99.90;;;;;;5092469;28;20323;-75
2023/06/01 04:04:36;;;;;;;4.85;1.25;;;16.70;99.90;;;;;;5092230;28;20209;-78
2023/06/01 04:07:05;;;;;;;0.10;0.10;;;16.70;99.90;;;;;;5092776;28;20649;-77
2023/06/01 04:09:32;;;;;;;0.35;0.35;;;16.70;99.90;;;;;;5077792;28;20206;-78
2023/06/01 04:11:59;;;;;;;0.10;0.10;;;16.60;99.90;;;;;;5092646;28;20205;-74
2023/06/01 04:14:26;;;;;;;0.10;0.10;;;16.60;99.90;;;;;;5092479;28;20237;-80
2023/06/01 04:16:53;;;;;;;0.20;0.20;;;16.60;99.90;;;;;;5092365;28;20220;-76
2023/06/01 04:19:21;;;;;;;0.10;0.10;;;16.50;99.90;;;;;;5092429;28;20282;-80
2023/06/01 04:21:49;;;;;;;0.10;0.10;;;16.60;99.90;;;;;;5091988;28;20241;-76
2023/06/01 04:24:16;;;;;;;0.10;0.10;;;16.60;99.90;;;;;;5092334;28;20968;-75
2023/06/01 04:26:44;;;;;;;0.85;0.80;;;16.50;99.90;;;;;;5091294;28;20269;-81
2023/06/01 04:29:11;;;;;;;0.13;0.13;;;16.50;99.90;;;;;;5092293;28;20267;-78
2023/06/01 04:31:39;;;;;;;0.17;0.17;;;16.50;99.90;;;;;;5091816;28;20217;-79
2023/06/01 04:34:06;;;;;;;0.30;0.30;;;16.50;99.90;;;;;;5092037;28;20761;-73
2023/06/01 04:36:39;;;;;;;0.20;0.20;;;16.50;99.90;;;;;;5091500;28;20248;-86
2023/06/01 04:39:07;;;;;;;0.10;0.10;;;16.60;99.90;;;;;;5091626;28;20221;-84
2023/06/01 04:41:34;;;;;;;0.30;0.30;;;16.40;99.90;;;;;;5091469;28;20676;-78
2023/06/01 04:44:05;;;;;;;0.20;0.20;;;16.40;99.90;;;;;;5092119;28;20206;-74
2023/06/01 04:46:33;;;;;;;0.20;0.20;;;16.50;99.90;;;;;;5091386;28;20237;-73
2023/06/01 04:49:00;;;;;;;0.65;0.65;;;16.40;99.90;;;;;;5079937;28;20237;-75
2023/06/01 04:51:29;;;;;;;0.20;0.20;;;16.50;99.90;;;;;;5089442;28;20693;-80
2023/06/01 04:53:57;;;;;;;0.28;0.28;;;16.60;78.10;;;;;;5092155;28;20209;-74
2023/06/01 04:56:26;;;;;;;2.35;2.17;;;16.60;1.00;;;;;;5090892;28;20237;-86
2023/06/01 04:58:54;;;;;;;0.50;0.50;;;16.50;99.90;;;;;;5091310;28;20668;-83
2023/06/01 05:01:24;;;;;;;0.22;0.22;;;16.50;1.00;;;;;;5091564;28;20263;-75
2023/06/01 05:03:54;;;;;;;0.20;0.20;;;16.50;1.00;;;;;;5091168;28;20233;-84
2023/06/01 05:06:22;;;;;;;0.10;0.10;;;16.50;99.90;;;;;;5091688;28;20713;-79
2023/06/01 05:08:49;;;;;;;2.95;0.93;;;16.60;1.00;;;;;;5090785;28;20753;-75
2023/06/01 05:11:17;;;;;;;0.13;0.13;;;16.70;1.00;;;;;;5091486;28;20309;-82
2023/06/01 05:13:44;;;;;;;1.17;1.17;;;16.50;1.00;;;;;;5090718;28;20248;-74
2023/06/01 05:16:11;;;;;;;0.38;0.38;;;16.50;1.00;;;;;;5091359;28;20209;-74
2023/06/01 05:18:39;;;;;;;0.40;0.40;;;16.50;99.90;;;;;;5090717;28;20684;-81
2023/06/01 05:21:06;;;;;;;9.80;8.00;;;16.60;1.00;;;;;;5091246;28;20229;-83
2023/06/01 05:23:33;;;;;;;12.68;8.25;;;16.60;1.00;;;;;;5090738;28;20237;-78
2023/06/01 05:26:02;;;;;;;12.27;8.50;;;16.70;1.00;;;;;;5091059;28;20225;-74
2023/06/01 05:28:31;;;;;;;8.88;7.88;;;16.70;99.90;;;;;;5091006;28;20206;-75
2023/06/01 05:30:58;;;;;;;7.93;7.18;;;16.50;1.00;;;;;;5090986;28;20245;-74
2023/06/01 05:33:26;;;;;;;9.15;8.23;;;16.40;1.00;;;;;;5091368;28;20256;-77
2023/06/01 05:35:52;;;;;;;8.98;8.07;;;16.60;40.60;;;;;;5090988;28;20209;-87
2023/06/01 05:38:20;;;;;;;8.43;7.55;;;16.70;1.00;;;;;;5090976;28;20834;-76
2023/06/01 05:40:47;;;;;;;8.95;8.05;;;16.70;1.00;;;;;;5090421;28;20245;-73
2023/06/01 05:43:15;;;;;;;9.82;8.10;;;16.60;99.90;;;;;;5090675;28;20302;-74
2023/06/01 05:45:43;;;;;;;10.15;6.95;;;16.80;1.00;;;;;;5090360;28;20320;-73
2023/06/01 05:48:13;;;;;;;10.40;7.43;;;16.90;99.90;;;;;;5090842;28;20244;-74
2023/06/01 05:50:40;;;;;;;10.23;7.70;;;17.00;52.10;;;;;;5090206;28;20233;-73
2023/06/01 05:53:08;;;;;;;8.20;7.20;;;17.00;1.00;;;;;;5090543;28;20288;-75
2023/06/01 05:55:34;;;;;;;9.23;8.27;;;17.00;1.00;;;;;;5089916;28;20249;-73
2023/06/01 05:58:01;;;;;;;8.63;6.82;;;16.90;1.00;;;;;;5090718;28;20245;-73
2023/06/01 06:00:28;;;;;;;11.27;6.90;;;17.00;1.00;;;;;;5090612;28;20241;-88
2023/06/01 06:02:57;;;;;;;10.45;7.10;;;17.00;1.00;;;;;;5090880;28;20251;-73
2023/06/01 06:05:24;;;;;;;10.40;8.18;;;17.10;1.00;;;;;;5090736;28;20271;-73
2023/06/01 06:07:50;;;;;;;8.15;7.15;;;17.20;1.00;;;;;;5092934;28;20239;-73
2023/06/01 06:10:17;;;;;;;25.45;15.57;;;17.20;1.00;;;;;;5094498;28;20323;-73
2023/06/01 06:12:44;;;;;;;28.30;17.15;;;17.30;1.00;;;;;;5094221;28;20361;-74
2023/06/01 06:15:11;;;;;;;14.23;10.98;;;17.40;1.00;;;;;;5094893;28;20241;-81
2023/06/01 06:17:38;;;;;;;15.10;10.13;;;17.30;1.00;;;;;;5094390;28;20237;-81
2023/06/01 06:20:08;;;;;;;11.48;9.05;;;17.50;1.00;;;;;;5094758;28;20244;-73
2023/06/01 06:22:35;;;;;;;12.35;7.68;;;17.60;1.00;;;;;;5093830;28;20259;-79
2023/06/01 06:25:02;;;;;;;9.55;8.63;;;17.40;1.00;;;;;;5094218;28;20245;-75
2023/06/01 06:27:29;;;;;;;14.35;10.60;;;17.60;1.00;;;;;;5094177;28;20321;-74
2023/06/01 06:29:56;;;;;;;17.67;8.88;;;17.60;1.00;;;;;;5094435;28;20716;-74
2023/06/01 06:32:23;;;;;;;9.85;8.25;;;17.70;1.00;;;;;;5094510;28;20205;-75
2023/06/01 06:34:50;;;;;;;10.70;9.60;;;17.80;99.90;;;;;;5093804;28;20255;-73
2023/06/01 06:37:18;;;;;;;14.13;11.27;;;17.90;99.90;;;;;;5093805;28;20198;-73
2023/06/01 06:39:45;;;;;;;8.98;8.00;;;17.90;99.90;;;;;;5093661;28;20232;-78
2023/06/01 06:42:12;;;;;;;10.40;8.05;;;18.20;99.90;;;;;;5093944;28;20241;-72
2023/06/01 06:44:39;;;;;;;11.25;8.50;;;18.20;99.90;;;;;;5093886;28;20259;-77
2023/06/01 06:47:06;;;;;;;10.45;9.10;;;18.10;99.90;;;;;;5094153;28;20705;-74
2023/06/01 06:49:33;;;;;;;9.63;8.73;;;18.20;99.90;;;;;;5093687;28;20790;-73
2023/06/01 06:52:00;;;;;;;8.13;6.90;;;18.20;99.90;;;;;;5093314;28;20244;-73
2023/06/01 06:54:29;;;;;;;10.27;8.35;;;18.30;99.90;;;;;;5093923;28;20233;-74
2023/06/01 06:56:55;;;;;;;8.45;7.03;;;18.40;99.90;;;;;;5094101;28;20627;-73
2023/06/01 06:59:22;;;;;;;8.75;7.75;;;18.60;99.90;;;;;;5093846;28;20689;-81
2023/06/01 07:01:50;;;;;;;9.82;7.13;;;18.60;99.90;;;;;;5093430;28;20244;-74
2023/06/01 07:04:17;;;;;;;9.45;6.93;;;18.50;99.90;;;;;;5093274;28;20209;-73
2023/06/01 07:06:44;;;;;;;12.77;7.95;;;18.40;99.90;;;;;;5092756;28;20321;-70
2023/06/01 07:09:11;;;;;;;8.75;7.03;;;18.30;99.90;;;;;;5093725;28;20238;-79
2023/06/01 07:11:42;;;;;;;7.80;7.03;;;18.30;99.90;;;;;;5092864;28;20237;-77
2023/06/01 07:14:09;;;;;;;8.15;6.50;;;18.40;99.90;;;;;;5093208;28;20738;-71
2023/06/01 07:16:36;;;;;;;10.80;6.40;;;18.40;99.90;;;;;;5092893;28;20206;-78
2023/06/01 07:19:03;;;;;;;7.43;6.43;;;18.50;99.90;;;;;;5092372;28;20302;-78
2023/06/01 07:21:30;;;;;;;12.23;8.23;;;18.40;99.90;;;;;;5093299;28;20201;-74
2023/06/01 07:23:57;;;;;;;27.55;14.63;;;18.40;99.90;;;;;;5093565;28;20208;-75
2023/06/01 07:26:26;;;;;;;21.08;11.85;;;18.60;99.90;;;;;;5093606;28;20316;-72
2023/06/01 07:28:56;;;;;;;21.58;11.30;;;18.70;99.90;;;;;;5093278;28;20213;-74
2023/06/01 07:31:24;;;;;;;11.98;8.43;;;18.80;99.90;;;;;;5093497;28;20220;-74
2023/06/01 07:33:52;;;;;;;17.63;8.95;;;18.80;99.90;;;;;;5092410;28;20213;-72
2023/06/01 07:36:20;;;;;;;18.00;8.95;;;18.80;99.90;;;;;;5093402;28;20216;-73
2023/06/01 07:38:47;;;;;;;12.63;8.63;;;18.70;99.90;;;;;;5092467;28;20666;-73
2023/06/01 07:41:13;;;;;;;12.88;7.22;;;19.00;99.90;;;;;;5092982;28;20241;-71
2023/06/01 07:43:40;;;;;;;13.40;6.97;;;19.30;99.90;;;;;;5092383;28;20657;-81
2023/06/01 07:46:09;;;;;;;16.23;10.75;;;19.70;99.90;;;;;;5092810;28;20264;-72
2023/06/01 07:48:38;;;;;;;7.43;6.53;;;19.80;99.90;;;;;;5092401;28;20274;-74
2023/06/01 07:51:06;;;;;;;8.18;7.20;;;19.60;99.90;;;;;;5092943;28;20688;-74
2023/06/01 07:53:33;;;;;;;8.98;6.72;;;19.70;99.90;;;;;;5092391;28;20256;-73
2023/06/01 07:55:59;;;;;;;9.20;7.45;;;19.60;99.90;;;;;;5092512;28;20361;-73
2023/06/01 07:58:26;;;;;;;8.75;6.50;;;19.80;99.90;;;;;;5092545;28;20245;-70
2023/06/01 08:00:54;;;;;;;11.30;7.18;;;19.70;99.90;;;;;;5092094;28;20634;-71
2023/06/01 08:03:25;;;;;;;7.38;6.63;;;19.30;99.90;;;;;;5092281;28;20578;-75
2023/06/01 08:05:54;;;;;;;6.90;6.20;;;19.10;99.90;;;;;;5092160;28;20214;-76
2023/06/01 08:08:21;;;;;;;9.00;5.78;;;19.20;99.90;;;;;;5092362;28;20251;-74
2023/06/01 08:10:48;;;;;;;11.18;7.15;;;19.30;99.90;;;;;;5092016;28;20288;-71
2023/06/01 08:13:15;;;;;;;9.65;7.25;;;19.20;99.90;;;;;;5092282;28;20201;-78
2023/06/01 08:15:42;;;;;;;8.10;6.00;;;19.40;99.90;;;;;;5091825;28;20243;-75
2023/06/01 08:18:09;;;;;;;9.57;6.57;;;19.60;99.90;;;;;;5091876;28;20212;-71
2023/06/01 08:20:38;;;;;;;7.07;5.90;;;19.80;99.90;;;;;;5091848;28;20237;-71
2023/06/01 08:23:04;;;;;;;5.63;5.13;;;20.10;99.90;;;;;;5091954;28;20229;-73
2023/06/01 08:25:31;;;;;;;10.00;5.53;;;20.20;99.90;;;;;;5091579;28;20672;-71
2023/06/01 08:27:58;;;;;;;7.32;4.80;;;20.60;99.90;;;;;;5091836;28;20272;-72
2023/06/01 08:30:26;;;;;;;6.30;5.15;;;20.60;99.90;;;;;;5091929;28;20205;-72
2023/06/01 08:32:53;;;;;;;9.25;5.60;;;20.60;99.90;;;;;;5091714;28;20241;-72
2023/06/01 08:35:20;;;;;;;6.47;4.88;;;20.30;99.90;;;;;;5091986;28;20233;-72
2023/06/01 08:37:49;;;;;;;8.30;5.57;;;20.20;99.90;;;;;;5091115;28;20657;-73
2023/06/01 08:40:17;;;;;;;7.53;5.30;;;20.30;99.90;;;;;;5091555;28;20241;-73
2023/06/01 08:42:50;;;;;;;10.48;5.88;;;20.70;99.90;;;;;;5091369;28;20263;-73
2023/06/01 08:45:18;;;;;;;8.32;5.53;;;21.30;99.90;;;;;;5091779;28;20244;-76
2023/06/01 08:47:47;;;;;;;6.60;5.85;;;21.70;99.90;;;;;;5090893;28;20272;-76
2023/06/01 08:50:15;;;;;;;6.38;4.47;;;21.90;99.90;;;;;;5091655;28;20202;-76
2023/06/01 08:52:46;;;;;;;6.57;5.70;;;21.90;99.90;;;;;;5090737;28;20216;-73
2023/06/01 08:55:15;;;;;;;8.85;6.38;;;21.90;99.90;;;;;;5091545;28;20206;-74
2023/06/01 08:57:42;;;;;;;8.73;5.28;;;21.60;99.90;;;;;;5091081;28;20233;-73
2023/06/01 09:00:13;;;;;;;10.15;7.32;;;21.60;99.90;;;;;;5091380;28;20683;-73
2023/06/01 09:02:40;;;;;;;5.47;4.57;;;21.40;99.90;;;;;;5090874;28;20213;-73
2023/06/01 09:05:07;;;;;;;5.47;4.55;;;21.70;99.90;;;;;;5090923;28;20197;-76
2023/06/01 09:07:34;;;;;;;9.88;6.45;;;21.90;99.90;;;;;;5089588;28;20272;-74
2023/06/01 09:10:02;;;;;;;6.95;5.07;;;21.80;99.90;;;;;;5090963;28;20739;-80
2023/06/01 09:12:32;;;;;;;5.60;5.05;;;21.40;99.90;;;;;;5091321;28;20205;-74
2023/06/01 09:15:10;;;;;;;5.82;4.53;;;21.30;99.90;;;;;;5090941;28;20197;-75
2023/06/01 09:17:38;;;;;;;5.22;4.63;;;21.50;99.90;;;;;;5090387;28;20236;-75
2023/06/01 09:20:06;;;;;;;6.20;5.55;;;21.40;99.90;;;;;;5091029;28;20244;-77
2023/06/01 09:22:43;;;;;;;5.55;4.78;;;21.20;99.90;;;;;;5090641;28;20291;-78
2023/06/01 09:25:12;;;;;;;9.38;4.70;;;21.80;99.90;;;;;;5090745;28;20640;-74
2023/06/01 09:27:46;;;;;;;6.38;5.22;;;21.20;99.90;;;;;;5090292;28;20320;-79
2023/06/01 09:30:13;;;;;;;7.13;5.78;;;21.00;99.90;;;;;;5090374;28;20244;-76
2023/06/01 09:32:41;;;;;;;7.03;4.55;;;21.20;99.90;;;;;;5090471;28;20279;-74
2023/06/01 09:35:08;;;;;;;8.70;4.28;;;21.30;99.90;;;;;;5090631;28;20231;-75
2023/06/01 09:37:35;;;;;;;6.53;5.38;;;21.30;99.90;;;;;;5090405;28;20201;-73
2023/06/01 09:40:04;;;;;;;6.80;5.20;;;21.40;99.90;;;;;;5090727;28;20296;-74
2023/06/01 09:42:35;;;;;;;7.47;5.63;;;21.30;99.90;;;;;;5089725;28;20205;-71
2023/06/01 09:45:20;;;;;;;7.80;4.97;;;21.20;99.90;;;;;;5090360;28;20235;-74
2023/06/01 09:47:47;;;;;;;5.93;5.25;;;21.00;99.90;;;;;;5089894;28;20260;-79
2023/06/01 09:50:34;;;;;;;6.13;5.50;;;21.30;99.90;;;;;;5090620;28;20201;-74
2023/06/01 09:53:01;;;;;;;6.05;5.47;;;21.20;99.90;;;;;;5090366;28;20223;-73
2023/06/01 09:55:29;;;;;;;6.72;4.57;;;21.20;99.90;;;;;;5079948;28;20210;-74
2023/06/01 09:58:18;;;;;;;5.80;5.18;;;21.10;99.90;;;;;;5087205;28;20210;-75
2023/06/01 10:00:48;;;;;;;4.47;4.07;;;21.20;99.90;;;;;;5090213;28;20655;-74
2023/06/01 10:03:16;;;;;;;4.65;4.15;;;21.50;99.90;;;;;;5090222;28;20575;-72
2023/06/01 10:05:44;;;;;;;5.65;4.30;;;21.80;99.90;;;;;;5090009;28;20212;-76
2023/06/01 10:08:13;;;;;;;5.75;4.68;;;22.60;99.90;;;;;;5090324;28;20248;-76
2023/06/01 10:10:41;;;;;;;7.03;4.85;;;23.70;99.90;;;;;;5090241;28;20205;-79
2023/06/01 10:13:09;;;;;;;4.60;4.20;;;25.80;99.90;;;;;;5090074;28;20233;-72
2023/06/01 10:15:35;;;;;;;4.55;4.15;;;26.10;99.90;;;;;;5089960;28;20592;-76
2023/06/01 10:18:04;;;;;;;5.30;3.78;;;24.50;99.90;;;;;;5090107;28;20631;-75
2023/06/01 10:20:34;;;;;;;4.82;4.30;;;23.40;99.90;;;;;;5090087;28;20657;-76
2023/06/01 10:23:02;;;;;;;5.47;4.97;;;26.20;99.90;;;;;;5090767;28;20233;-74
2023/06/01 10:25:35;;;;;;;4.93;4.20;;;26.10;99.90;;;;;;5090042;28;20206;-72
2023/06/01 10:28:05;;;;;;;4.20;3.70;;;28.10;99.90;;;;;;5089751;28;20237;-75
2023/06/01 10:30:32;;;;;;;4.32;3.92;;;26.20;99.90;;;;;;5089770;28;20743;-77
2023/06/01 10:32:59;;;;;;;5.47;4.10;;;24.50;99.90;;;;;;5090130;28;20712;-80
2023/06/01 10:36:03;;;;;;;5.50;4.40;;;23.90;99.90;;;;;;5090383;28;20237;-80
2023/06/01 10:38:31;;;;;;;5.75;4.97;;;24.40;99.90;;;;;;5090157;28;20232;-72
2023/06/01 10:41:30;;;;;;;4.88;4.38;;;24.20;99.90;;;;;;5091671;28;20262;-77
2023/06/01 10:43:57;;;;;;;5.53;5.03;;;23.70;99.90;;;;;;5090041;28;20208;-77
2023/06/01 10:46:43;;;;;;;4.53;4.00;;;23.40;99.90;;;;;;5091591;28;20225;-77
2023/06/01 10:49:10;;;;;;;5.25;4.80;;;23.00;99.90;;;;;;5085253;28;20249;-74
2023/06/01 10:51:37;;;;;;;5.47;4.97;;;23.10;99.90;;;;;;5080689;28;20632;-80
2023/06/01 10:54:29;;;;;;;4.97;4.50;;;23.20;99.90;;;;;;5091643;28;20232;-83
2023/06/01 10:57:21;;;;;;;4.30;3.90;;;23.40;99.90;;;;;;5093889;28;20245;-82
2023/06/01 11:00:14;;;;;;;6.10;4.88;;;23.20;99.90;;;;;;5087460;28;20210;-80
2023/06/01 11:02:49;;;;;;;4.93;4.43;;;23.80;99.90;;;;;;5093421;28;20596;-80
2023/06/01 11:05:43;;;;;;;4.80;4.40;;;23.30;99.90;;;;;;5093829;28;20244;-80
2023/06/01 11:08:54;;;;;;;5.07;4.10;;;23.20;99.90;;;;;;5093456;28;20713;-77
2023/06/01 11:11:22;;;;;;;4.70;4.15;;;23.80;99.90;;;;;;5077648;28;20236;-81
2023/06/01 11:14:08;;;;;;;5.95;4.20;;;23.70;99.90;;;;;;5093060;28;20245;-78
2023/06/01 11:16:35;;;;;;;5.07;3.78;;;23.10;99.90;;;;;;5065766;28;20214;-79
2023/06/01 11:19:03;;;;;;;7.85;5.57;;;23.20;99.90;;;;;;5093545;28;20248;-80
2023/06/01 11:21:35;;;;;;;5.97;5.30;;;23.10;99.90;;;;;;5092829;28;20206;-77
2023/06/01 11:24:06;;;;;;;5.97;5.47;;;23.20;99.90;;;;;;5093065;28;20768;-75
2023/06/01 11:26:38;;;;;;;5.93;5.18;;;23.10;99.90;;;;;;5092254;28;20585;-79
2023/06/01 11:29:08;;;;;;;4.57;4.18;;;23.00;99.90;;;;;;5092779;28;20268;-80
2023/06/01 11:31:37;;;;;;;5.60;5.10;;;23.10;99.90;;;;;;5092470;28;20248;-75
2023/06/01 11:34:04;;;;;;;8.98;4.50;;;23.40;99.90;;;;;;5092964;28;20248;-76
2023/06/01 11:36:36;;;;;;;7.90;7.07;;;23.60;99.90;;;;;;5092744;28;20241;-77
2023/06/01 11:39:06;;;;;;;5.53;4.70;;;24.10;99.90;;;;;;5092863;28;20202;-79
2023/06/01 11:41:35;;;;;;;7.53;6.90;;;24.50;99.90;;;;;;5092116;28;20205;-79
2023/06/01 11:44:02;;;;;;;5.20;4.68;;;24.50;99.90;;;;;;5092527;28;20206;-79
2023/06/01 11:46:29;;;;;;;5.65;4.60;;;24.40;99.90;;;;;;5092854;28;20767;-74
2023/06/01 11:49:07;;;;;;;5.05;4.55;;;24.40;99.90;;;;;;5092917;28;20275;-77
2023/06/01 11:51:38;;;;;;;5.72;5.07;;;23.90;99.90;;;;;;5092124;28;20665;-78
2023/06/01 11:54:06;;;;;;;6.72;5.50;;;24.00;99.90;;;;;;5092392;28;20202;-81
2023/06/01 11:56:39;;;;;;;7.63;5.25;;;24.30;99.90;;;;;;5092064;28;20683;-77
2023/06/01 11:59:08;;;;;;;5.53;4.57;;;24.60;99.90;;;;;;5092749;28;20224;-84
2023/06/01 12:01:36;;;;;;;11.13;4.82;;;24.60;99.90;;;;;;5092469;28;20202;-78
2023/06/01 12:04:05;;;;;;;4.70;4.30;;;24.40;99.90;;;;;;5092355;28;20258;-76
2023/06/01 12:06:32;;;;;;;6.05;5.45;;;23.80;99.90;;;;;;5092095;28;20209;-76
2023/06/01 12:09:00;;;;;;;7.68;5.47;;;23.50;99.90;;;;;;5092206;28;20256;-73
2023/06/01 12:11:28;;;;;;;6.93;4.55;;;23.70;99.90;;;;;;5092523;28;20216;-74
2023/06/01 12:13:57;;;;;;;7.13;5.30;;;23.60;99.90;;;;;;5092567;28;20750;-72
2023/06/01 12:16:25;;;;;;;6.20;5.60;;;23.70;99.90;;;;;;5092260;28;20202;-76
2023/06/01 12:18:52;;;;;;;5.47;4.97;;;23.70;99.90;;;;;;5091906;28;20590;-75
2023/06/01 12:21:19;;;;;;;4.88;4.40;;;23.60;99.90;;;;;;5091733;28;20688;-78
2023/06/01 12:23:51;;;;;;;5.53;5.03;;;23.80;99.90;;;;;;5091640;28;20249;-74
2023/06/01 12:26:18;;;;;;;5.85;5.05;;;24.00;99.90;;;;;;5092155;28;20209;-74
2023/06/01 12:28:50;;;;;;;7.68;5.68;;;24.00;99.90;;;;;;5091407;28;20283;-77
2023/06/01 12:31:19;;;;;;;4.82;4.32;;;24.20;99.90;;;;;;5091822;28;20209;-78
2023/06/01 12:33:48;;;;;;;5.53;4.45;;;24.10;99.90;;;;;;5091253;28;20253;-72
2023/06/01 12:36:31;;;;;;;11.32;5.25;;;24.10;99.90;;;;;;5091806;28;20205;-73
2023/06/01 12:39:00;;;;;;;5.53;4.82;;;24.10;99.90;;;;;;5090203;28;20300;-76
2023/06/01 12:41:28;;;;;;;5.25;4.80;;;24.20;99.90;;;;;;5091532;28;20688;-78
2023/06/01 12:43:56;;;;;;;5.57;4.80;;;23.90;99.90;;;;;;5091845;28;20213;-80
2023/06/01 12:46:26;;;;;;;8.70;5.35;;;24.00;99.90;;;;;;5091968;28;20286;-77
2023/06/01 12:48:55;;;;;;;5.60;4.55;;;24.30;99.90;;;;;;5091423;28;20318;-78
2023/06/01 12:51:22;;;;;;;5.75;5.15;;;24.50;99.90;;;;;;5092008;28;20233;-74
2023/06/01 12:53:49;;;;;;;8.13;4.22;;;24.50;99.90;;;;;;5090917;28;20253;-81
2023/06/01 12:56:16;;;;;;;6.38;5.70;;;24.20;99.90;;;;;;5091365;28;20237;-77